Time;durP1;ratioP1;P1;durP2;ratioP2;P2;SDS_P1;SDS_P2;PMS_P1;PMS_P2;Temp;Humidity;BMP_temperature;BMP_pressure;BME280_temperature;BME280_humidity;BME280_pressure;Samples;Min_cycle;Max_cycle;Signal;HPM_P1;HPM_P2
2023/10/19 00:02:07;;;;;;;9.82;3.50;;;12.50;99.90;;;;;;5056188;28;20047;-48
2023/10/19 00:04:34;;;;;;;7.65;3.65;;;12.50;99.90;;;;;;5056058;28;20029;-50
2023/10/19 00:07:01;;;;;;;5.90;3.58;;;12.50;99.90;;;;;;5055978;28;20057;-51
2023/10/19 00:09:35;;;;;;;5.07;3.83;;;12.50;99.90;;;;;;5055573;28;20422;-51
2023/10/19 00:12:02;;;;;;;6.57;3.53;;;12.50;99.90;;;;;;5055959;28;20107;-51
2023/10/19 00:14:27;;;;;;;6.43;3.85;;;12.50;99.90;;;;;;5055813;28;20055;-52
2023/10/19 00:16:56;;;;;;;7.32;4.50;;;12.50;99.90;;;;;;5055825;28;20029;-52
2023/10/19 00:19:22;;;;;;;6.20;4.28;;;12.40;99.90;;;;;;5055696;28;20040;-51
2023/10/19 00:21:50;;;;;;;6.38;4.43;;;12.40;99.90;;;;;;5055902;28;20032;-52
2023/10/19 00:24:18;;;;;;;4.93;3.72;;;12.50;99.90;;;;;;5055397;28;20500;-51
2023/10/19 00:26:44;;;;;;;6.35;4.38;;;12.50;99.90;;;;;;5055433;28;20358;-49
2023/10/19 00:31:56;;;;;;;7.15;4.20;;;12.50;99.90;;;;;;5055611;28;20044;-50
2023/10/19 00:34:22;;;;;;;6.90;4.00;;;12.50;99.90;;;;;;5055244;28;20029;-51
2023/10/19 00:36:50;;;;;;;7.65;3.90;;;12.50;99.90;;;;;;5055453;28;20033;-50
2023/10/19 00:39:20;;;;;;;6.65;4.00;;;12.50;99.90;;;;;;5055238;28;20045;-52
2023/10/19 00:41:47;;;;;;;6.63;3.95;;;12.40;99.90;;;;;;5054993;28;20478;-48
2023/10/19 00:44:16;;;;;;;7.45;3.78;;;12.40;99.90;;;;;;5055435;28;20024;-51
2023/10/19 00:49:09;;;;;;;6.55;3.97;;;12.40;99.90;;;;;;5055137;28;20041;-51
2023/10/19 00:54:39;;;;;;;6.13;3.78;;;12.40;99.90;;;;;;5055264;28;20044;-53
2023/10/19 00:57:11;;;;;;;5.00;3.20;;;12.40;99.90;;;;;;5054092;28;20042;-51
2023/10/19 00:59:47;;;;;;;5.20;3.55;;;12.40;99.90;;;;;;5054676;28;20028;-51
2023/10/19 01:02:17;;;;;;;7.30;3.58;;;12.40;99.90;;;;;;5055153;28;20033;-51
2023/10/19 01:04:44;;;;;;;7.68;3.63;;;12.40;99.90;;;;;;5055161;28;20021;-50
2023/10/19 01:07:22;;;;;;;4.80;3.25;;;12.40;99.90;;;;;;5054788;28;20470;-48
2023/10/19 01:09:47;;;;;;;4.85;3.17;;;12.40;99.90;;;;;;5054308;28;20127;-49
2023/10/19 01:12:25;;;;;;;5.63;3.50;;;12.40;99.90;;;;;;5054859;28;20362;-48
2023/10/19 01:15:19;;;;;;;4.03;3.20;;;12.30;99.90;;;;;;5054815;28;20345;-48
2023/10/19 01:17:52;;;;;;;7.30;3.08;;;12.40;99.90;;;;;;5054878;28;20083;-49
2023/10/19 01:20:22;;;;;;;5.60;3.03;;;12.40;99.90;;;;;;5055068;28;20047;-48
2023/10/19 01:28:22;;;;;;;4.18;3.00;;;12.30;99.90;;;;;;5054643;28;20423;-47
2023/10/19 01:30:51;;;;;;;5.07;3.15;;;12.40;99.90;;;;;;5053713;28;20041;-48
2023/10/19 01:33:21;;;;;;;4.90;3.00;;;12.30;99.90;;;;;;5054665;28;20446;-52
2023/10/19 01:38:31;;;;;;;4.25;2.90;;;12.30;99.90;;;;;;5054603;28;20484;-47
2023/10/19 01:41:00;;;;;;;4.78;2.97;;;12.30;99.90;;;;;;5054716;28;20064;-48
2023/10/19 01:43:40;;;;;;;4.25;2.80;;;12.30;99.90;;;;;;5054658;28;20036;-47
2023/10/19 01:46:11;;;;;;;5.28;2.92;;;12.30;99.90;;;;;;5054709;28;20037;-47
2023/10/19 01:48:38;;;;;;;5.18;3.53;;;12.30;99.90;;;;;;5054311;28;20139;-47
2023/10/19 01:51:05;;;;;;;6.20;3.22;;;12.30;99.90;;;;;;5053440;28;20120;-47
2023/10/19 01:53:35;;;;;;;5.13;2.83;;;12.30;99.90;;;;;;5054534;28;20041;-48
2023/10/19 01:56:00;;;;;;;5.10;3.42;;;12.30;99.90;;;;;;5054475;28;20515;-48
2023/10/19 01:58:26;;;;;;;6.93;3.78;;;12.30;99.90;;;;;;5054163;28;20040;-47
2023/10/19 02:01:00;;;;;;;6.15;3.90;;;12.30;99.90;;;;;;5053458;28;20036;-51
2023/10/19 02:03:28;;;;;;;6.30;3.25;;;12.30;99.90;;;;;;5054585;28;20466;-48
2023/10/19 02:06:00;;;;;;;6.70;3.88;;;12.30;99.90;;;;;;5054199;28;20052;-47
2023/10/19 02:08:26;;;;;;;5.22;3.03;;;12.30;99.90;;;;;;5054291;28;20040;-48
2023/10/19 02:10:53;;;;;;;5.43;3.25;;;12.30;99.90;;;;;;5054150;28;20033;-50
2023/10/19 02:13:20;;;;;;;5.35;3.30;;;12.30;99.90;;;;;;5054615;28;20439;-48
2023/10/19 02:15:45;;;;;;;5.28;3.67;;;12.30;99.90;;;;;;5053857;28;20037;-54
2023/10/19 02:18:11;;;;;;;6.35;3.92;;;12.30;99.90;;;;;;5053774;28;20358;-48
2023/10/19 02:20:41;;;;;;;5.20;3.63;;;12.30;99.90;;;;;;5055541;28;20048;-52
2023/10/19 02:23:07;;;;;;;5.72;4.00;;;12.30;99.90;;;;;;5058075;28;20379;-48
2023/10/19 02:25:36;;;;;;;5.35;3.78;;;12.30;99.90;;;;;;5057959;28;20045;-48
2023/10/19 02:28:09;;;;;;;5.35;4.00;;;12.30;99.90;;;;;;5056916;28;20093;-48
2023/10/19 02:30:34;;;;;;;6.43;3.75;;;12.30;99.90;;;;;;5057661;28;20048;-47
2023/10/19 02:33:01;;;;;;;5.85;4.00;;;12.30;99.90;;;;;;5057779;28;20354;-48
2023/10/19 02:35:27;;;;;;;7.38;4.00;;;12.30;99.90;;;;;;5057877;28;20036;-48
2023/10/19 02:37:54;;;;;;;6.43;4.40;;;12.30;99.90;;;;;;5056686;28;20035;-48
2023/10/19 02:40:19;;;;;;;6.03;3.88;;;12.40;99.90;;;;;;5057580;28;20130;-49
2023/10/19 02:42:55;;;;;;;7.10;4.05;;;12.30;99.90;;;;;;5057600;28;20053;-48
2023/10/19 02:45:21;;;;;;;6.88;4.70;;;12.40;99.90;;;;;;5057744;28;20071;-48
2023/10/19 02:47:47;;;;;;;7.60;4.25;;;12.40;99.90;;;;;;5057600;28;20029;-48
2023/10/19 02:50:17;;;;;;;8.75;4.65;;;12.40;99.90;;;;;;5057080;28;20098;-48
2023/10/19 02:52:45;;;;;;;8.88;4.85;;;12.30;99.90;;;;;;5057271;28;20625;-51
2023/10/19 02:55:11;;;;;;;7.13;4.57;;;12.40;99.90;;;;;;5056423;28;20110;-48
2023/10/19 02:57:37;;;;;;;8.82;4.80;;;12.40;99.90;;;;;;5057540;28;20033;-48
2023/10/19 03:00:13;;;;;;;7.30;5.00;;;12.40;99.90;;;;;;5057278;28;20037;-49
2023/10/19 03:02:39;;;;;;;8.88;4.95;;;12.40;99.90;;;;;;5056951;28;20454;-47
2023/10/19 03:05:14;;;;;;;8.07;4.90;;;12.50;99.90;;;;;;5057465;28;20117;-47
2023/10/19 03:07:45;;;;;;;7.93;5.15;;;12.40;99.90;;;;;;5057102;28;20041;-50
2023/10/19 03:10:34;;;;;;;11.65;5.35;;;12.50;99.90;;;;;;5056224;28;20063;-47
2023/10/19 03:13:01;;;;;;;7.53;5.07;;;12.50;99.90;;;;;;5057177;28;20347;-48
2023/10/19 03:15:30;;;;;;;9.48;5.30;;;12.50;99.90;;;;;;5057338;28;20029;-47
2023/10/19 03:17:55;;;;;;;10.25;5.72;;;12.50;99.90;;;;;;5056005;28;20470;-49
2023/10/19 03:20:25;;;;;;;11.93;5.70;;;12.50;99.90;;;;;;5056569;28;20180;-48
2023/10/19 03:22:51;;;;;;;7.65;5.13;;;12.50;99.90;;;;;;5056942;28;20033;-48
2023/10/19 03:28:11;;;;;;;11.68;6.07;;;12.60;99.90;;;;;;5056972;28;20044;-50
2023/10/19 03:30:40;;;;;;;8.60;5.25;;;12.50;99.90;;;;;;5056835;28;20446;-48
2023/10/19 03:33:08;;;;;;;7.88;5.63;;;12.50;99.90;;;;;;5038859;28;20029;-48
2023/10/19 03:35:37;;;;;;;7.65;5.30;;;12.50;99.90;;;;;;5056301;28;20075;-48
2023/10/19 03:38:08;;;;;;;10.60;5.78;;;12.40;99.90;;;;;;5055518;28;20025;-48
2023/10/19 03:40:38;;;;;;;13.98;6.35;;;12.40;99.90;;;;;;5056502;28;20025;-48
2023/10/19 03:43:16;;;;;;;10.93;6.32;;;12.40;99.90;;;;;;5056672;28;20056;-51
2023/10/19 03:45:52;;;;;;;10.65;6.60;;;12.50;99.90;;;;;;5056605;28;20036;-51
2023/10/19 03:48:26;;;;;;;11.43;6.10;;;12.50;99.90;;;;;;5056452;28;20037;-47
2023/10/19 03:50:53;;;;;;;11.82;6.35;;;12.50;99.90;;;;;;5055518;28;20041;-48
2023/10/19 03:53:21;;;;;;;10.23;6.40;;;12.50;99.90;;;;;;5055107;28;20516;-50
2023/10/19 03:55:47;;;;;;;12.82;6.40;;;12.50;99.90;;;;;;5056388;28;20040;-49
2023/10/19 03:58:13;;;;;;;12.23;6.65;;;12.60;99.90;;;;;;5056401;28;20025;-48
2023/10/19 04:00:39;;;;;;;11.52;6.95;;;12.60;99.90;;;;;;5056210;28;20039;-50
2023/10/19 04:03:05;;;;;;;10.98;6.80;;;12.60;99.90;;;;;;5056086;28;20025;-49
2023/10/19 04:05:31;;;;;;;11.10;6.55;;;12.60;99.90;;;;;;5055970;28;20035;-49
2023/10/19 04:08:00;;;;;;;10.80;6.07;;;12.60;99.90;;;;;;5056217;28;20028;-51
2023/10/19 04:13:01;;;;;;;12.05;6.30;;;12.60;99.90;;;;;;5054857;28;20319;-49
2023/10/19 04:15:35;;;;;;;10.68;6.03;;;12.60;99.90;;;;;;5054783;28;20043;-48
2023/10/19 04:18:01;;;;;;;10.38;6.05;;;12.70;99.90;;;;;;5055935;28;20041;-48
2023/10/19 04:22:53;;;;;;;10.15;6.25;;;12.70;99.90;;;;;;5055935;28;20443;-51
2023/10/19 04:25:19;;;;;;;8.98;5.70;;;12.70;99.90;;;;;;5055811;28;20064;-51
2023/10/19 04:27:45;;;;;;;10.75;6.28;;;12.70;99.90;;;;;;5054588;28;20060;-51
2023/10/19 04:30:27;;;;;;;9.60;5.63;;;12.70;99.90;;;;;;5055719;28;20051;-50
2023/10/19 04:32:53;;;;;;;9.57;5.93;;;12.70;99.90;;;;;;5055787;28;20047;-50
2023/10/19 04:35:21;;;;;;;9.20;5.72;;;12.70;99.90;;;;;;5055444;28;20457;-49
2023/10/19 04:37:53;;;;;;;12.35;6.45;;;12.70;99.90;;;;;;5055692;28;20040;-50
2023/10/19 04:40:19;;;;;;;10.93;6.40;;;12.70;99.90;;;;;;5054010;28;20033;-49
2023/10/19 04:42:46;;;;;;;10.38;6.03;;;12.70;99.90;;;;;;5055466;28;20451;-50
2023/10/19 04:45:12;;;;;;;9.52;5.95;;;12.70;99.90;;;;;;5055556;28;20051;-49
2023/10/19 04:47:37;;;;;;;9.65;5.93;;;12.70;99.90;;;;;;5054322;28;20091;-49
2023/10/19 04:50:04;;;;;;;8.75;5.00;;;12.70;99.90;;;;;;5055324;28;20041;-51
2023/10/19 04:52:30;;;;;;;10.30;5.00;;;12.70;99.90;;;;;;5054880;28;20069;-50
2023/10/19 04:54:55;;;;;;;7.03;4.45;;;12.80;99.90;;;;;;5055177;28;20079;-49
2023/10/19 04:57:21;;;;;;;6.90;3.65;;;12.70;99.90;;;;;;5055115;28;20033;-48
2023/10/19 04:59:47;;;;;;;6.47;3.70;;;12.70;99.90;;;;;;5054190;28;20033;-51
2023/10/19 05:02:13;;;;;;;8.27;4.03;;;12.80;99.90;;;;;;5055197;28;20033;-49
2023/10/19 05:04:40;;;;;;;6.82;3.63;;;12.70;99.90;;;;;;5053998;28;20059;-50
2023/10/19 05:07:06;;;;;;;5.97;3.75;;;12.80;99.90;;;;;;5054789;28;20064;-49
2023/10/19 05:09:32;;;;;;;7.45;4.00;;;12.80;99.90;;;;;;5053894;28;20029;-49
2023/10/19 05:11:58;;;;;;;7.68;3.40;;;12.80;99.90;;;;;;5053477;28;20102;-48
2023/10/19 05:14:24;;;;;;;8.32;3.83;;;12.80;99.90;;;;;;5054843;28;20090;-50
2023/10/19 05:16:49;;;;;;;6.20;3.17;;;12.90;99.90;;;;;;5054728;28;20037;-49
2023/10/19 05:19:15;;;;;;;5.35;2.92;;;12.90;99.90;;;;;;5055130;28;20119;-50
2023/10/19 05:21:41;;;;;;;8.73;2.83;;;12.90;99.90;;;;;;5053724;28;20029;-51
2023/10/19 05:24:07;;;;;;;6.60;1.95;;;13.00;99.90;;;;;;5054812;28;20025;-49
2023/10/19 05:26:36;;;;;;;9.48;1.73;;;13.00;99.90;;;;;;5053651;28;20073;-50
2023/10/19 05:29:02;;;;;;;7.10;1.30;;;13.10;99.90;;;;;;5054834;28;20033;-49
2023/10/19 05:31:28;;;;;;;6.32;1.80;;;13.20;99.90;;;;;;5054879;28;20355;-51
2023/10/19 05:33:54;;;;;;;9.23;1.50;;;13.20;99.90;;;;;;5054678;28;20055;-51
2023/10/19 05:36:19;;;;;;;8.60;1.48;;;13.20;99.90;;;;;;5054588;28;20037;-49
2023/10/19 05:38:45;;;;;;;9.40;1.52;;;13.20;99.90;;;;;;5054553;28;20037;-49
2023/10/19 05:41:11;;;;;;;9.63;1.65;;;13.20;99.90;;;;;;5054756;28;20033;-50
2023/10/19 05:43:38;;;;;;;7.03;1.20;;;13.20;99.90;;;;;;5054704;28;20037;-50
2023/10/19 05:46:04;;;;;;;6.20;1.38;;;13.20;99.90;;;;;;5054647;28;20450;-51
2023/10/19 05:48:30;;;;;;;6.93;2.08;;;13.20;99.90;;;;;;5053272;28;20052;-49
2023/10/19 05:50:56;;;;;;;7.57;1.35;;;13.20;99.90;;;;;;5053438;28;20025;-48
2023/10/19 05:53:22;;;;;;;11.40;1.50;;;13.20;99.90;;;;;;5054353;28;20442;-50
2023/10/19 05:55:49;;;;;;;4.95;1.13;;;13.20;99.90;;;;;;5056206;28;20090;-51
2023/10/19 05:58:15;;;;;;;9.73;2.17;;;13.20;99.90;;;;;;5058377;28;20359;-50
2023/10/19 06:00:41;;;;;;;5.55;1.00;;;13.10;99.90;;;;;;5058262;28;20036;-51
2023/10/19 06:03:07;;;;;;;3.53;0.80;;;13.10;99.90;;;;;;5057210;28;20055;-49
2023/10/19 06:05:33;;;;;;;5.57;1.00;;;13.10;99.90;;;;;;5058290;28;20029;-51
2023/10/19 06:07:59;;;;;;;4.15;0.98;;;13.10;99.90;;;;;;5058404;28;20029;-50
2023/10/19 06:10:27;;;;;;;11.05;2.80;;;13.10;99.90;;;;;;5058104;28;20037;-51
2023/10/19 06:12:52;;;;;;;10.05;3.40;;;13.10;99.90;;;;;;5057192;28;20343;-51
2023/10/19 06:15:20;;;;;;;11.13;3.10;;;13.10;99.90;;;;;;5058224;28;20052;-51
2023/10/19 06:17:47;;;;;;;7.15;2.58;;;13.10;99.90;;;;;;5058256;28;20366;-51
2023/10/19 06:20:28;;;;;;;6.25;2.03;;;13.20;99.90;;;;;;5058148;28;20033;-51
2023/10/19 06:23:04;;;;;;;8.43;1.70;;;13.20;99.90;;;;;;5058106;28;20032;-48
2023/10/19 06:25:30;;;;;;;8.57;3.20;;;13.10;99.90;;;;;;5058155;28;20021;-48
2023/10/19 06:27:59;;;;;;;5.00;1.70;;;13.20;99.90;;;;;;5057979;28;20070;-51
2023/10/19 06:30:25;;;;;;;6.43;1.70;;;13.20;99.90;;;;;;5057825;28;20061;-51
2023/10/19 06:32:52;;;;;;;4.70;1.50;;;13.20;99.90;;;;;;5057646;28;20409;-52
2023/10/19 06:35:19;;;;;;;3.90;1.15;;;13.20;99.90;;;;;;5056580;28;20427;-51
2023/10/19 06:37:45;;;;;;;4.65;1.30;;;13.20;99.90;;;;;;5057817;28;20033;-51
2023/10/19 06:40:12;;;;;;;3.28;1.45;;;13.20;99.90;;;;;;5057615;28;20348;-51
2023/10/19 06:42:38;;;;;;;3.92;1.30;;;13.20;99.90;;;;;;5057396;28;20356;-51
2023/10/19 06:45:05;;;;;;;4.05;1.23;;;13.20;99.90;;;;;;5057503;28;20029;-51
2023/10/19 06:47:30;;;;;;;5.15;1.40;;;13.20;99.90;;;;;;5057604;28;20048;-48
2023/10/19 06:49:56;;;;;;;3.42;1.15;;;13.20;99.90;;;;;;5057460;28;20048;-48
2023/10/19 06:52:22;;;;;;;1.80;1.00;;;13.20;99.90;;;;;;5057207;28;20029;-51
2023/10/19 06:54:48;;;;;;;2.67;1.40;;;13.20;99.90;;;;;;5057239;28;20033;-51
2023/10/19 06:57:13;;;;;;;7.90;1.88;;;13.20;99.90;;;;;;5057348;28;20066;-51
2023/10/19 06:59:39;;;;;;;3.10;1.05;;;13.20;99.90;;;;;;5057146;28;20044;-52
2023/10/19 07:02:07;;;;;;;3.78;1.70;;;13.30;99.90;;;;;;5057007;28;20040;-51
2023/10/19 07:04:33;;;;;;;2.42;1.40;;;13.20;99.90;;;;;;5057073;28;20422;-51
2023/10/19 07:07:00;;;;;;;13.55;4.00;;;13.30;99.90;;;;;;5055567;28;20072;-51
2023/10/19 07:09:26;;;;;;;9.20;3.20;;;13.30;99.90;;;;;;5057153;28;20045;-50
2023/10/19 07:11:54;;;;;;;5.25;1.77;;;13.30;99.90;;;;;;5057028;28;20469;-51
2023/10/19 07:14:22;;;;;;;9.68;2.40;;;13.30;99.90;;;;;;5056543;28;20106;-51
2023/10/19 07:16:51;;;;;;;4.97;2.15;;;13.30;99.90;;;;;;5056949;28;20048;-50
2023/10/19 07:19:17;;;;;;;6.95;1.70;;;13.30;99.90;;;;;;5056852;28;20052;-51
2023/10/19 07:21:48;;;;;;;10.32;4.60;;;13.30;99.90;;;;;;5055742;28;20112;-51
2023/10/19 07:24:14;;;;;;;4.18;1.70;;;13.40;99.90;;;;;;5057002;28;20029;-52
2023/10/19 07:29:24;;;;;;;6.07;1.85;;;13.40;99.90;;;;;;5056604;28;20186;-51
2023/10/19 07:31:52;;;;;;;4.82;2.22;;;13.30;99.90;;;;;;5056663;28;20483;-51
2023/10/19 07:34:18;;;;;;;7.97;2.65;;;13.40;99.90;;;;;;5055255;28;20029;-51
2023/10/19 07:36:44;;;;;;;5.85;2.85;;;13.40;99.90;;;;;;5056500;28;20036;-51
2023/10/19 07:39:18;;;;;;;5.43;2.78;;;13.40;99.90;;;;;;5056228;28;20036;-51
2023/10/19 07:41:44;;;;;;;6.88;2.15;;;13.40;99.90;;;;;;5056361;28;20021;-55
2023/10/19 07:44:11;;;;;;;5.53;2.75;;;13.40;99.90;;;;;;5055225;28;20036;-55
2023/10/19 07:46:37;;;;;;;9.48;2.75;;;13.50;99.90;;;;;;5054885;28;20033;-55
2023/10/19 07:49:03;;;;;;;6.68;2.28;;;13.50;99.90;;;;;;5056295;28;20025;-54
2023/10/19 07:51:29;;;;;;;8.18;3.05;;;13.50;99.90;;;;;;5056030;28;20040;-55
2023/10/19 07:53:56;;;;;;;8.75;3.33;;;13.50;99.90;;;;;;5056257;28;20024;-54
2023/10/19 07:56:23;;;;;;;5.15;2.88;;;13.50;99.90;;;;;;5054977;28;20033;-55
2023/10/19 07:58:49;;;;;;;9.00;4.47;;;13.50;99.90;;;;;;5055772;28;20037;-54
2023/10/19 08:01:15;;;;;;;7.15;3.10;;;13.50;99.90;;;;;;5055605;28;20083;-54
2023/10/19 08:03:41;;;;;;;5.90;2.60;;;13.60;99.90;;;;;;5056046;28;20033;-54
2023/10/19 08:06:06;;;;;;;8.20;2.88;;;13.60;99.90;;;;;;5054615;28;20559;-53
2023/10/19 08:08:35;;;;;;;4.15;2.08;;;13.60;99.90;;;;;;5054886;28;20056;-54
2023/10/19 08:11:00;;;;;;;3.20;1.60;;;13.60;99.90;;;;;;5055884;28;20104;-53
2023/10/19 08:13:27;;;;;;;5.78;2.60;;;13.60;99.90;;;;;;5055603;28;20111;-53
2023/10/19 08:15:52;;;;;;;7.22;2.85;;;13.60;99.90;;;;;;5054863;28;20037;-53
2023/10/19 08:18:18;;;;;;;6.20;2.13;;;13.60;99.90;;;;;;5055697;28;20047;-55
2023/10/19 08:20:49;;;;;;;4.50;2.83;;;13.60;99.90;;;;;;5054757;28;20044;-55
2023/10/19 08:23:16;;;;;;;7.05;3.00;;;13.60;99.90;;;;;;5055614;28;20388;-55
2023/10/19 08:25:44;;;;;;;6.97;2.17;;;13.70;99.90;;;;;;5055646;28;20078;-54
2023/10/19 08:28:10;;;;;;;7.80;3.38;;;13.70;99.90;;;;;;5055424;28;20051;-55
2023/10/19 08:30:37;;;;;;;7.75;3.53;;;13.70;99.90;;;;;;5055395;28;20041;-55
2023/10/19 08:33:03;;;;;;;5.13;2.42;;;13.80;99.90;;;;;;5054964;28;20412;-55
2023/10/19 08:35:30;;;;;;;8.70;2.58;;;13.90;99.90;;;;;;5055388;28;20446;-55
2023/10/19 08:38:00;;;;;;;7.15;2.30;;;14.30;99.90;;;;;;5055394;28;20064;-54
2023/10/19 08:40:29;;;;;;;2.58;1.10;;;14.40;99.90;;;;;;5055254;28;20044;-56
2023/10/19 08:42:55;;;;;;;2.30;1.00;;;14.60;99.90;;;;;;5055152;28;20100;-54
2023/10/19 08:45:23;;;;;;;3.28;1.52;;;14.70;99.90;;;;;;5054578;28;20025;-53
2023/10/19 08:47:56;;;;;;;3.70;1.15;;;14.70;99.90;;;;;;5055593;28;20506;-54
2023/10/19 08:50:23;;;;;;;2.60;1.35;;;14.70;99.90;;;;;;5054865;28;20028;-53
2023/10/19 08:52:49;;;;;;;2.38;1.02;;;14.70;99.90;;;;;;5053791;28;20033;-54
2023/10/19 08:55:15;;;;;;;3.83;1.30;;;14.80;99.90;;;;;;5037032;28;20047;-54
2023/10/19 08:57:40;;;;;;;3.88;1.55;;;14.90;99.90;;;;;;5054824;28;20037;-54
2023/10/19 09:00:07;;;;;;;4.80;1.48;;;14.90;99.90;;;;;;5053640;28;20024;-54
2023/10/19 09:02:36;;;;;;;8.27;1.42;;;15.00;99.90;;;;;;5054519;28;20037;-54
2023/10/19 09:05:07;;;;;;;4.63;1.52;;;15.00;99.90;;;;;;5054839;28;20086;-54
2023/10/19 09:07:34;;;;;;;4.25;1.48;;;15.00;99.90;;;;;;5054708;28;20052;-54
2023/10/19 09:10:01;;;;;;;3.33;1.20;;;14.90;99.90;;;;;;5053650;28;20064;-55
2023/10/19 09:12:26;;;;;;;6.30;1.40;;;14.90;99.90;;;;;;5054712;28;20039;-53
2023/10/19 09:14:52;;;;;;;2.15;0.90;;;14.90;99.90;;;;;;5054857;28;20029;-54
2023/10/19 09:17:28;;;;;;;4.07;1.30;;;14.80;99.90;;;;;;5054074;28;20039;-54
2023/10/19 09:19:56;;;;;;;5.50;1.30;;;14.90;99.90;;;;;;5054204;28;20496;-54
2023/10/19 09:22:24;;;;;;;2.75;1.30;;;14.90;99.90;;;;;;5054097;28;20040;-54
2023/10/19 09:24:53;;;;;;;6.97;1.52;;;14.90;99.90;;;;;;5053637;28;20029;-54
2023/10/19 09:27:19;;;;;;;5.97;1.67;;;15.10;99.90;;;;;;5054564;28;20047;-53
2023/10/19 09:29:45;;;;;;;5.22;1.30;;;15.30;99.90;;;;;;5054429;28;20385;-54
2023/10/19 09:32:13;;;;;;;7.75;2.40;;;15.30;99.90;;;;;;5054267;28;20029;-54
2023/10/19 09:34:40;;;;;;;9.20;2.60;;;15.30;99.90;;;;;;5054005;28;20049;-54
2023/10/19 09:37:06;;;;;;;9.13;2.22;;;15.40;99.90;;;;;;5053018;28;20040;-54
2023/10/19 09:39:35;;;;;;;8.70;2.00;;;15.50;99.90;;;;;;5053740;28;20025;-54
2023/10/19 09:42:11;;;;;;;10.55;1.75;;;15.40;99.90;;;;;;5053436;28;20021;-54
2023/10/19 09:44:54;;;;;;;15.40;2.15;;;15.40;99.90;;;;;;5054171;28;20063;-53
2023/10/19 09:47:35;;;;;;;13.93;1.98;;;15.40;99.90;;;;;;5053168;28;20033;-53
2023/10/19 09:50:02;;;;;;;12.60;2.35;;;15.40;99.90;;;;;;5052407;28;20041;-53
2023/10/19 09:52:28;;;;;;;12.50;2.30;;;15.40;99.90;;;;;;5054048;28;20359;-51
2023/10/19 09:55:14;;;;;;;17.45;2.35;;;15.40;99.90;;;;;;5052910;28;20099;-54
2023/10/19 09:57:56;;;;;;;10.55;2.45;;;15.40;99.90;;;;;;5052998;28;20045;-54
2023/10/19 10:00:24;;;;;;;10.10;2.17;;;15.40;99.90;;;;;;5054104;28;20120;-54
2023/10/19 10:02:55;;;;;;;12.90;1.95;;;15.40;99.90;;;;;;5052764;28;20037;-53
2023/10/19 10:05:42;;;;;;;13.88;2.95;;;15.40;99.90;;;;;;5053861;28;20397;-53
2023/10/19 10:08:17;;;;;;;10.88;1.98;;;15.40;99.90;;;;;;5053641;28;20044;-53
2023/10/19 10:10:46;;;;;;;14.00;2.80;;;15.40;99.90;;;;;;5053988;28;20383;-53
2023/10/19 10:13:24;;;;;;;10.75;2.53;;;15.40;99.90;;;;;;5053844;28;20029;-54
2023/10/19 10:16:06;;;;;;;10.13;2.45;;;15.40;99.90;;;;;;5054207;28;20067;-54
2023/10/19 10:18:32;;;;;;;11.80;1.90;;;15.50;99.90;;;;;;5052533;28;20037;-53
2023/10/19 10:21:16;;;;;;;8.40;1.50;;;15.50;99.90;;;;;;5053318;28;20451;-54
2023/10/19 10:23:52;;;;;;;13.25;2.15;;;15.60;99.90;;;;;;5053900;28;20048;-54
2023/10/19 10:26:18;;;;;;;15.05;2.20;;;16.30;99.90;;;;;;5053685;28;20387;-54
2023/10/19 10:29:06;;;;;;;14.48;1.77;;;18.00;99.90;;;;;;5054071;28;20405;-54
2023/10/19 10:31:33;;;;;;;14.18;2.28;;;19.20;99.90;;;;;;5054111;28;20043;-52
2023/10/19 10:33:59;;;;;;;10.85;2.10;;;19.30;99.90;;;;;;5036164;28;20037;-54
2023/10/19 10:36:26;;;;;;;18.17;2.90;;;19.40;99.90;;;;;;5053270;28;20048;-54
2023/10/19 10:38:52;;;;;;;7.47;1.83;;;19.60;99.90;;;;;;5036128;28;20033;-55
2023/10/19 10:41:21;;;;;;;13.45;2.17;;;19.40;99.90;;;;;;5054284;28;20087;-54
2023/10/19 10:43:54;;;;;;;11.05;2.17;;;19.40;99.90;;;;;;5057309;28;20028;-54
2023/10/19 10:46:21;;;;;;;6.78;1.48;;;20.50;99.90;;;;;;5057179;28;20036;-54
2023/10/19 10:48:48;;;;;;;11.93;3.10;;;20.20;99.90;;;;;;5057138;28;20094;-54
2023/10/19 10:51:18;;;;;;;8.57;1.90;;;19.60;99.90;;;;;;5057353;28;20147;-54
2023/10/19 10:53:46;;;;;;;9.93;2.00;;;19.00;99.90;;;;;;5056792;28;20485;-53
2023/10/19 10:56:12;;;;;;;10.18;2.00;;;19.20;99.90;;;;;;5056940;28;20124;-53
2023/10/19 10:58:37;;;;;;;8.20;1.50;;;19.60;99.90;;;;;;5057010;28;20403;-54
2023/10/19 11:01:03;;;;;;;9.05;1.73;;;19.10;99.90;;;;;;5057063;28;20324;-53
2023/10/19 11:03:30;;;;;;;9.93;1.70;;;18.50;99.90;;;;;;5056843;28;20342;-54
2023/10/19 11:06:02;;;;;;;8.95;1.70;;;18.70;99.90;;;;;;5056139;28;20431;-51
2023/10/19 11:08:28;;;;;;;7.97;1.88;;;18.30;99.90;;;;;;5055699;28;20481;-55
2023/10/19 11:10:54;;;;;;;14.43;4.15;;;17.90;99.90;;;;;;5056396;28;20025;-56
2023/10/19 11:13:23;;;;;;;13.18;2.55;;;17.60;99.90;;;;;;5056583;28;20131;-55
2023/10/19 11:15:50;;;;;;;9.32;2.17;;;17.50;99.90;;;;;;5056665;28;20136;-52
2023/10/19 11:18:39;;;;;;;10.68;1.70;;;17.60;99.90;;;;;;5056456;28;20362;-55
2023/10/19 11:21:11;;;;;;;11.35;2.45;;;17.70;99.90;;;;;;5055368;28;20036;-55
2023/10/19 11:23:48;;;;;;;8.63;2.05;;;18.50;99.90;;;;;;5056568;28;20029;-55
2023/10/19 11:26:18;;;;;;;5.47;1.75;;;18.40;99.90;;;;;;5056448;28;20319;-55
2023/10/19 11:28:54;;;;;;;12.82;2.10;;;18.90;99.90;;;;;;5055008;28;20029;-53
2023/10/19 11:31:23;;;;;;;9.02;1.70;;;19.60;99.90;;;;;;5040197;28;20064;-55
2023/10/19 11:33:50;;;;;;;6.55;1.70;;;19.80;99.90;;;;;;5055246;28;20484;-55
2023/10/19 11:36:16;;;;;;;9.93;1.75;;;20.30;99.90;;;;;;5056236;28;20210;-54
2023/10/19 11:38:43;;;;;;;7.53;1.85;;;20.20;99.90;;;;;;5054956;28;20028;-53
2023/10/19 11:41:09;;;;;;;9.88;1.83;;;20.20;99.90;;;;;;5056210;28;20041;-53
2023/10/19 11:43:36;;;;;;;8.88;1.63;;;20.50;99.90;;;;;;5056048;28;20089;-51
2023/10/19 11:46:04;;;;;;;10.88;2.83;;;20.20;99.90;;;;;;5056089;28;20029;-53
2023/10/19 11:48:30;;;;;;;8.32;1.80;;;20.80;99.90;;;;;;5055668;28;20041;-55
2023/10/19 11:50:56;;;;;;;10.20;2.20;;;20.50;99.90;;;;;;5055550;28;20111;-53
2023/10/19 11:53:22;;;;;;;8.48;1.30;;;21.00;99.90;;;;;;5055170;28;20025;-53
2023/10/19 11:55:48;;;;;;;8.38;1.40;;;22.00;99.90;;;;;;5055629;28;20094;-54
2023/10/19 11:58:14;;;;;;;3.88;1.48;;;22.10;99.90;;;;;;5055273;28;20021;-53
2023/10/19 12:00:43;;;;;;;10.32;1.70;;;23.00;99.90;;;;;;5055610;28;20029;-53
2023/10/19 12:03:10;;;;;;;7.05;1.75;;;23.30;99.90;;;;;;5054484;28;20481;-51
2023/10/19 12:05:37;;;;;;;5.80;1.40;;;23.90;97.30;;;;;;5054148;28;20040;-53
2023/10/19 12:08:03;;;;;;;6.45;1.38;;;24.30;95.30;;;;;;5055687;28;20115;-53
2023/10/19 12:10:38;;;;;;;8.60;2.38;;;24.70;93.80;;;;;;5055689;28;20051;-54
2023/10/19 12:13:08;;;;;;;9.57;2.30;;;25.00;94.60;;;;;;5054705;28;20036;-55
2023/10/19 12:15:33;;;;;;;8.75;1.85;;;25.50;91.20;;;;;;5055492;28;20086;-55
2023/10/19 12:17:59;;;;;;;7.32;1.88;;;25.20;90.10;;;;;;5055558;28;20187;-54
2023/10/19 12:20:26;;;;;;;6.47;1.45;;;24.90;90.50;;;;;;5053995;28;20348;-55
2023/10/19 12:22:53;;;;;;;8.30;2.20;;;24.30;91.10;;;;;;5055397;28;20036;-54
2023/10/19 12:25:21;;;;;;;8.63;1.80;;;24.00;92.70;;;;;;5054685;28;20098;-54
2023/10/19 12:27:46;;;;;;;9.50;2.17;;;24.50;91.90;;;;;;5055454;28;20115;-54
2023/10/19 12:30:22;;;;;;;5.57;1.88;;;24.30;92.40;;;;;;5055345;28;20118;-55
2023/10/19 12:32:51;;;;;;;9.90;2.08;;;24.10;91.20;;;;;;5054833;28;20112;-54
2023/10/19 12:35:19;;;;;;;4.60;1.65;;;24.60;89.60;;;;;;5054968;28;20036;-53
2023/10/19 12:37:51;;;;;;;10.48;1.77;;;24.80;87.50;;;;;;5055015;28;20358;-54
2023/10/19 12:40:31;;;;;;;7.55;1.88;;;23.60;92.70;;;;;;5054837;28;20372;-55
2023/10/19 12:42:57;;;;;;;8.40;1.80;;;22.10;97.40;;;;;;5054441;28;20466;-54
2023/10/19 12:45:24;;;;;;;7.80;1.50;;;21.30;99.90;;;;;;5055264;28;20102;-53
2023/10/19 12:47:51;;;;;;;11.05;2.30;;;20.70;99.90;;;;;;5053888;28;20409;-54
2023/10/19 12:50:22;;;;;;;8.10;2.35;;;20.10;99.90;;;;;;5053884;28;20118;-53
2023/10/19 12:52:49;;;;;;;8.90;2.45;;;19.80;99.90;;;;;;5054941;28;20037;-54
2023/10/19 12:55:15;;;;;;;12.35;2.30;;;19.70;99.90;;;;;;5054779;28;20033;-55
2023/10/19 12:57:41;;;;;;;10.30;1.77;;;19.50;99.90;;;;;;5054275;28;20438;-54
2023/10/19 13:03:00;;;;;;;11.40;1.98;;;19.20;99.90;;;;;;5054788;28;20039;-55
2023/10/19 13:05:27;;;;;;;7.45;1.63;;;19.10;99.90;;;;;;5053921;28;20049;-55
2023/10/19 13:07:53;;;;;;;5.93;1.65;;;19.30;99.90;;;;;;5054631;28;20454;-54
2023/10/19 13:10:19;;;;;;;6.82;1.77;;;19.40;99.90;;;;;;5054189;28;20033;-56
2023/10/19 13:12:45;;;;;;;6.95;1.80;;;19.40;99.90;;;;;;5053266;28;20036;-54
2023/10/19 13:15:13;;;;;;;9.57;1.55;;;19.40;99.90;;;;;;5054739;28;20037;-55
2023/10/19 13:17:39;;;;;;;10.07;2.58;;;19.40;99.90;;;;;;5054659;28;20036;-55
2023/10/19 13:20:16;;;;;;;5.85;1.90;;;19.60;99.90;;;;;;5054563;28;20418;-55
2023/10/19 13:22:42;;;;;;;6.03;1.73;;;19.70;99.90;;;;;;5054381;28;20042;-55